Time;durP1;ratioP1;P1;durP2;ratioP2;P2;SDS_P1;SDS_P2;PMS_P1;PMS_P2;Temp;Humidity;BMP_temperature;BMP_pressure;BME280_temperature;BME280_humidity;BME280_pressure;Samples;Min_cycle;Max_cycle;Signal;HPM_P1;HPM_P2
2023/07/01 00:01:40;;;;;;;1.58;0.60;;;17.40;99.90;;;;;;6219866;23;20032;-88
2023/07/01 00:04:06;;;;;;;4.22;0.93;;;17.30;99.90;;;;;;6219564;23;20109;-88
2023/07/01 00:06:31;;;;;;;2.47;0.90;;;17.30;99.90;;;;;;6219766;23;20086;-87
2023/07/01 00:08:57;;;;;;;3.92;0.80;;;17.30;99.90;;;;;;6219913;23;20023;-87
2023/07/01 00:11:25;;;;;;;7.30;1.10;;;17.40;99.90;;;;;;6219687;23;20449;-88
2023/07/01 00:13:51;;;;;;;2.90;0.80;;;17.40;99.90;;;;;;6194535;23;20031;-89
2023/07/01 00:16:17;;;;;;;5.25;0.77;;;17.40;99.90;;;;;;6219546;23;20028;-88
2023/07/01 00:18:45;;;;;;;4.40;0.90;;;17.40;99.90;;;;;;6194945;23;20332;-89
2023/07/01 00:21:11;;;;;;;3.42;0.73;;;17.40;99.90;;;;;;6220313;23;20008;-88
2023/07/01 00:23:37;;;;;;;2.78;1.00;;;17.40;99.90;;;;;;6246568;23;20477;-87
2023/07/01 00:26:03;;;;;;;2.85;0.88;;;17.40;99.90;;;;;;6246580;23;20018;-89
2023/07/01 00:28:28;;;;;;;4.22;0.88;;;17.40;99.90;;;;;;6220001;23;20027;-89
2023/07/01 00:30:54;;;;;;;3.40;0.88;;;17.40;99.90;;;;;;6219631;23;20027;-87
2023/07/01 00:33:20;;;;;;;3.33;0.60;;;17.40;99.90;;;;;;6219921;23;20059;-87
2023/07/01 00:35:46;;;;;;;5.07;1.33;;;17.40;99.90;;;;;;6220061;23;20016;-87
2023/07/01 00:38:12;;;;;;;4.65;1.00;;;17.40;99.90;;;;;;6247172;23;20028;-88
2023/07/01 00:40:38;;;;;;;2.72;0.73;;;17.40;99.90;;;;;;6220056;23;20094;-88
2023/07/01 00:43:03;;;;;;;2.25;0.80;;;17.40;99.90;;;;;;6246823;23;20396;-86
2023/07/01 00:45:29;;;;;;;2.15;0.70;;;17.40;99.90;;;;;;6219594;23;20016;-87
2023/07/01 00:47:55;;;;;;;4.40;0.75;;;17.40;99.90;;;;;;6219502;23;20047;-87
2023/07/01 00:50:21;;;;;;;3.05;0.85;;;17.40;99.90;;;;;;6220098;23;20020;-87
2023/07/01 00:52:47;;;;;;;5.35;0.70;;;17.40;99.90;;;;;;6195026;23;20028;-89
2023/07/01 00:55:13;;;;;;;4.10;0.90;;;17.40;99.90;;;;;;6220124;23;20047;-88
2023/07/01 00:57:39;;;;;;;4.07;0.70;;;17.80;99.90;;;;;;6219929;23;20095;-88
2023/07/01 01:00:10;;;;;;;3.47;0.88;;;17.40;99.90;;;;;;6196332;23;20305;-87
2023/07/01 01:02:57;;;;;;;4.85;1.00;;;17.40;99.90;;;;;;6248583;23;20316;-89
2023/07/01 01:05:32;;;;;;;2.00;0.70;;;17.40;99.90;;;;;;6222708;23;20035;-85
2023/07/01 01:08:10;;;;;;;3.92;0.82;;;17.40;99.90;;;;;;6223111;23;20476;-86
2023/07/01 01:10:39;;;;;;;3.90;1.13;;;17.40;99.90;;;;;;6223452;23;20028;-87
2023/07/01 01:13:06;;;;;;;1.73;0.82;;;17.40;99.90;;;;;;6222345;23;20024;-86
2023/07/01 01:15:32;;;;;;;3.78;0.60;;;17.40;99.90;;;;;;6221463;23;20062;-87
2023/07/01 01:18:04;;;;;;;3.08;0.75;;;17.40;99.90;;;;;;6221065;23;20422;-86
2023/07/01 01:20:33;;;;;;;6.15;1.00;;;17.30;99.90;;;;;;6220259;23;20074;-87
2023/07/01 01:23:21;;;;;;;2.63;0.90;;;17.40;99.90;;;;;;6247371;23;20012;-86
2023/07/01 01:25:54;;;;;;;2.35;0.88;;;17.30;99.90;;;;;;6219172;23;20027;-88
2023/07/01 01:28:20;;;;;;;4.05;0.80;;;17.30;99.90;;;;;;6246073;23;20095;-87
2023/07/01 01:30:47;;;;;;;2.63;0.95;;;17.40;99.90;;;;;;6193912;23;20017;-87
2023/07/01 01:33:12;;;;;;;4.20;1.02;;;17.30;99.90;;;;;;6219280;23;20036;-87
2023/07/01 01:35:38;;;;;;;3.95;0.90;;;17.30;99.90;;;;;;6219148;23;20020;-87
2023/07/01 01:38:09;;;;;;;2.55;0.77;;;17.30;99.90;;;;;;6219374;23;20043;-86
2023/07/01 01:40:47;;;;;;;3.63;0.90;;;17.30;99.90;;;;;;6193475;23;20024;-87
2023/07/01 01:43:37;;;;;;;5.25;0.88;;;17.30;99.90;;;;;;6218911;23;20051;-87
2023/07/01 01:46:05;;;;;;;3.40;1.00;;;16.90;99.90;;;;;;6218953;23;20028;-87
2023/07/01 01:48:32;;;;;;;5.18;1.17;;;17.30;99.90;;;;;;6218759;23;20027;-87
2023/07/01 01:51:00;;;;;;;3.92;0.90;;;17.20;99.90;;;;;;6245806;23;20027;-87
2023/07/01 01:53:28;;;;;;;4.85;0.80;;;17.10;99.90;;;;;;6219829;23;20024;-86
2023/07/01 01:55:54;;;;;;;3.00;1.08;;;17.00;99.90;;;;;;6193998;23;20070;-87
2023/07/01 01:58:20;;;;;;;9.18;1.92;;;17.00;99.90;;;;;;6218720;23;20454;-86
2023/07/01 02:00:46;;;;;;;4.68;0.95;;;16.90;99.90;;;;;;6218859;23;20052;-87
2023/07/01 02:03:13;;;;;;;2.88;0.90;;;16.80;99.90;;;;;;6218356;23;20447;-87
2023/07/01 02:05:38;;;;;;;4.15;1.00;;;16.70;99.90;;;;;;6245490;23;20013;-87
2023/07/01 02:08:04;;;;;;;2.67;1.00;;;16.70;99.90;;;;;;6219022;23;20022;-88
2023/07/01 02:10:32;;;;;;;4.25;1.30;;;16.60;99.90;;;;;;6218943;23;20027;-87
2023/07/01 02:12:58;;;;;;;3.10;1.23;;;16.60;99.90;;;;;;6218440;23;20024;-87
2023/07/01 02:15:24;;;;;;;4.72;1.05;;;16.50;99.90;;;;;;6218621;23;20016;-86
2023/07/01 02:17:50;;;;;;;4.28;1.20;;;16.50;99.90;;;;;;6218702;23;20329;-86
2023/07/01 02:20:16;;;;;;;4.38;1.15;;;16.40;99.90;;;;;;6218645;23;20063;-86
2023/07/01 02:22:42;;;;;;;3.25;1.10;;;16.40;99.90;;;;;;6245217;23;20504;-88
2023/07/01 02:25:08;;;;;;;2.90;1.27;;;16.40;99.90;;;;;;6245534;23;20012;-87
2023/07/01 02:27:33;;;;;;;2.33;0.90;;;16.40;99.90;;;;;;6218974;23;20447;-88
2023/07/01 02:29:59;;;;;;;2.78;0.98;;;16.30;99.90;;;;;;6245823;23;20062;-87
2023/07/01 02:32:25;;;;;;;6.15;1.33;;;16.30;99.90;;;;;;6245037;23;20162;-86
2023/07/01 02:34:51;;;;;;;4.93;1.40;;;16.30;99.90;;;;;;6218845;23;20438;-88
2023/07/01 02:37:17;;;;;;;1.40;0.80;;;16.30;99.90;;;;;;6245877;23;20455;-87
2023/07/01 02:39:45;;;;;;;4.53;1.10;;;16.30;99.90;;;;;;6220872;23;20024;-89
2023/07/01 02:42:11;;;;;;;1.83;0.93;;;16.30;99.90;;;;;;6247987;23;20035;-86
2023/07/01 02:44:37;;;;;;;3.00;1.00;;;16.30;99.90;;;;;;6194904;23;20020;-88
2023/07/01 02:47:03;;;;;;;2.60;1.00;;;16.20;99.90;;;;;;6195197;23;20024;-87
2023/07/01 02:49:29;;;;;;;4.80;1.05;;;16.30;99.90;;;;;;6221356;23;20515;-87
2023/07/01 02:51:55;;;;;;;2.42;0.90;;;16.30;99.90;;;;;;6220679;23;20030;-87
2023/07/01 02:54:20;;;;;;;2.80;1.10;;;16.30;99.90;;;;;;6221739;23;20328;-86
2023/07/01 02:56:46;;;;;;;2.55;1.00;;;16.30;99.90;;;;;;6249961;23;20026;-86
2023/07/01 02:59:12;;;;;;;3.58;1.30;;;16.30;99.90;;;;;;6222458;23;20024;-86
2023/07/01 03:01:37;;;;;;;4.40;1.42;;;16.30;99.90;;;;;;6197838;23;20028;-86
2023/07/01 03:04:06;;;;;;;4.15;1.10;;;16.30;99.90;;;;;;6250477;23;20016;-88
2023/07/01 03:06:35;;;;;;;2.95;1.38;;;16.30;99.90;;;;;;6222787;23;20062;-86
2023/07/01 03:09:07;;;;;;;3.80;1.75;;;16.40;99.90;;;;;;6248756;23;20016;-86
2023/07/01 03:11:36;;;;;;;4.13;1.30;;;16.40;99.90;;;;;;6221023;23;20024;-88
2023/07/01 03:14:03;;;;;;;4.75;1.40;;;16.40;99.90;;;;;;6220310;23;20031;-85
2023/07/01 03:16:30;;;;;;;4.30;1.58;;;16.40;99.90;;;;;;6220491;23;20528;-86
2023/07/01 03:18:58;;;;;;;2.78;1.40;;;16.40;99.90;;;;;;6220688;23;20052;-87
2023/07/01 03:21:24;;;;;;;5.28;1.77;;;16.30;99.90;;;;;;6247564;23;20086;-86
2023/07/01 03:23:50;;;;;;;4.40;1.67;;;16.50;99.90;;;;;;6195493;23;20027;-86
2023/07/01 03:26:16;;;;;;;6.53;1.98;;;16.50;99.90;;;;;;6246952;23;20022;-87
2023/07/01 03:28:42;;;;;;;4.28;1.70;;;16.50;99.90;;;;;;6220037;23;20476;-86
2023/07/01 03:31:08;;;;;;;5.43;1.90;;;16.50;99.90;;;;;;6195274;23;20062;-87
2023/07/01 03:33:35;;;;;;;3.65;2.10;;;16.50;99.90;;;;;;6247548;23;20052;-86
2023/07/01 03:36:01;;;;;;;5.53;2.33;;;16.50;99.90;;;;;;6220542;23;20024;-87
2023/07/01 03:38:27;;;;;;;5.22;2.00;;;16.40;99.90;;;;;;6194504;23;20469;-85
2023/07/01 03:40:52;;;;;;;5.60;1.95;;;16.40;99.90;;;;;;6219827;23;20024;-86
2023/07/01 03:43:18;;;;;;;4.18;1.80;;;16.30;99.90;;;;;;6220230;23;20016;-86
2023/07/01 03:45:44;;;;;;;5.20;2.63;;;16.30;99.90;;;;;;6194786;23;20031;-86
2023/07/01 03:48:09;;;;;;;5.20;2.20;;;16.30;99.90;;;;;;6194476;23;20020;-86
2023/07/01 03:50:35;;;;;;;7.03;2.60;;;16.30;99.90;;;;;;6219917;23;20099;-88
2023/07/01 03:53:01;;;;;;;4.55;2.40;;;16.20;99.90;;;;;;6220045;23;20104;-86
2023/07/01 03:55:27;;;;;;;5.22;2.15;;;16.20;99.90;;;;;;6219814;23;20024;-86
2023/07/01 03:57:52;;;;;;;4.45;2.05;;;15.80;99.90;;;;;;6219917;23;20017;-87
2023/07/01 04:00:18;;;;;;;4.55;2.40;;;16.20;99.90;;;;;;6246995;23;20427;-86
2023/07/01 04:02:46;;;;;;;5.00;2.20;;;16.10;99.90;;;;;;6194762;23;20024;-86
2023/07/01 04:05:12;;;;;;;5.35;2.22;;;15.90;99.90;;;;;;6194836;23;20095;-87
2023/07/01 04:07:41;;;;;;;3.92;2.30;;;16.20;99.90;;;;;;6219368;23;20473;-87
2023/07/01 04:10:08;;;;;;;4.30;2.22;;;16.20;99.90;;;;;;6246571;23;20021;-86
2023/07/01 04:12:35;;;;;;;2.33;1.77;;;16.20;99.90;;;;;;6219525;23;20430;-86
2023/07/01 04:15:03;;;;;;;3.05;1.80;;;16.10;99.90;;;;;;6219747;23;20067;-86
2023/07/01 04:17:29;;;;;;;3.67;2.70;;;16.10;99.90;;;;;;6220671;23;20074;-86
2023/07/01 04:19:56;;;;;;;5.30;2.10;;;16.10;99.90;;;;;;6246812;23;20040;-86
2023/07/01 04:22:23;;;;;;;5.68;2.17;;;16.10;99.90;;;;;;6246730;23;20024;-87
2023/07/01 04:24:49;;;;;;;7.72;2.50;;;16.20;99.90;;;;;;6247201;23;20023;-87
2023/07/01 04:27:15;;;;;;;5.15;1.75;;;16.20;99.90;;;;;;6219179;23;20346;-86
2023/07/01 04:29:41;;;;;;;2.75;1.65;;;16.20;99.90;;;;;;6219686;23;20023;-86
2023/07/01 04:32:07;;;;;;;5.07;1.70;;;16.20;99.90;;;;;;6220356;23;20398;-86
2023/07/01 04:34:33;;;;;;;4.53;1.90;;;16.20;99.90;;;;;;6220798;23;20022;-86
2023/07/01 04:36:58;;;;;;;7.05;1.70;;;16.00;99.90;;;;;;6247793;23;20051;-86
2023/07/01 04:39:24;;;;;;;5.05;2.08;;;16.20;99.90;;;;;;6247416;23;20016;-86
2023/07/01 04:41:50;;;;;;;3.00;1.52;;;16.20;99.90;;;;;;6219550;23;20028;-87
2023/07/01 04:44:16;;;;;;;4.00;1.70;;;16.30;99.90;;;;;;6246768;23;20016;-87
2023/07/01 04:46:41;;;;;;;5.95;2.03;;;16.30;99.90;;;;;;6220567;23;20038;-87
2023/07/01 04:49:10;;;;;;;2.80;1.70;;;16.40;99.90;;;;;;6246912;23;20020;-87
2023/07/01 04:51:36;;;;;;;4.57;2.13;;;16.30;99.90;;;;;;6247025;23;20062;-86
2023/07/01 04:54:04;;;;;;;7.93;1.77;;;16.40;99.90;;;;;;6196449;23;20462;-86
2023/07/01 04:56:31;;;;;;;4.20;1.80;;;16.40;99.90;;;;;;6248592;23;20019;-86
2023/07/01 04:58:56;;;;;;;3.38;1.38;;;16.40;99.90;;;;;;6221859;23;20050;-86
2023/07/01 05:01:22;;;;;;;4.38;1.45;;;16.40;99.90;;;;;;6247792;23;20047;-86
2023/07/01 05:03:48;;;;;;;2.42;1.63;;;16.40;99.90;;;;;;6220562;23;20013;-86
2023/07/01 05:06:14;;;;;;;2.95;1.70;;;16.50;99.90;;;;;;6220050;23;20026;-87
2023/07/01 05:08:40;;;;;;;3.60;1.70;;;16.50;99.90;;;;;;6246373;23;20016;-88
2023/07/01 05:11:05;;;;;;;3.72;1.60;;;16.60;99.90;;;;;;6246160;23;20016;-87
2023/07/01 05:13:31;;;;;;;4.93;1.95;;;16.60;99.90;;;;;;6218960;23;20054;-87
2023/07/01 05:15:57;;;;;;;5.53;2.33;;;16.40;99.90;;;;;;6194061;23;20050;-87
2023/07/01 05:18:23;;;;;;;3.33;1.80;;;16.70;99.90;;;;;;6193794;23;20031;-88
2023/07/01 05:20:49;;;;;;;6.88;2.25;;;16.60;99.90;;;;;;6219575;23;20012;-86
2023/07/01 05:23:15;;;;;;;6.75;1.95;;;16.70;99.90;;;;;;6218652;23;20103;-86
2023/07/01 05:25:40;;;;;;;3.53;1.85;;;16.60;99.90;;;;;;6194320;23;20437;-86
2023/07/01 05:28:06;;;;;;;3.83;2.10;;;16.60;99.90;;;;;;6193830;23;20020;-87
2023/07/01 05:30:32;;;;;;;2.63;1.65;;;16.70;99.90;;;;;;6219430;23;20091;-87
2023/07/01 05:32:58;;;;;;;2.40;2.00;;;16.70;99.90;;;;;;6218036;23;20031;-87
2023/07/01 05:35:23;;;;;;;5.55;2.53;;;16.70;99.90;;;;;;6218714;23;20024;-87
2023/07/01 05:37:51;;;;;;;5.18;2.22;;;16.70;99.90;;;;;;6219178;23;20024;-87
2023/07/01 05:40:20;;;;;;;7.40;2.67;;;16.60;99.90;;;;;;6219360;23;20016;-88
2023/07/01 05:42:45;;;;;;;7.82;2.92;;;16.70;99.90;;;;;;6246103;23;20020;-85
2023/07/01 05:45:12;;;;;;;5.07;2.38;;;16.70;99.90;;;;;;6218345;23;20031;-86
2023/07/01 05:47:38;;;;;;;4.72;2.40;;;16.80;99.90;;;;;;6245639;23;20016;-85
2023/07/01 05:50:05;;;;;;;5.95;2.70;;;16.70;99.90;;;;;;6218864;23;20058;-86
2023/07/01 05:52:31;;;;;;;2.75;2.08;;;16.90;99.90;;;;;;6193626;23;20028;-86
2023/07/01 05:54:56;;;;;;;4.97;3.28;;;16.80;99.90;;;;;;6218793;23;20024;-86
2023/07/01 05:57:22;;;;;;;5.95;2.33;;;16.80;99.90;;;;;;6218859;23;20024;-87
2023/07/01 05:59:48;;;;;;;7.00;2.35;;;16.80;99.90;;;;;;6218694;23;20455;-86
2023/07/01 06:02:14;;;;;;;7.65;2.30;;;16.80;99.90;;;;;;6218855;23;20070;-86
2023/07/01 06:04:40;;;;;;;3.70;2.50;;;16.80;99.90;;;;;;6218758;23;20387;-87
2023/07/01 06:07:06;;;;;;;4.38;2.17;;;16.80;99.90;;;;;;6245392;23;20042;-86
2023/07/01 06:09:31;;;;;;;3.80;1.60;;;16.90;99.90;;;;;;6245218;23;20522;-85
2023/07/01 06:11:57;;;;;;;3.03;2.03;;;16.90;99.90;;;;;;6218386;23;20024;-85
2023/07/01 06:14:23;;;;;;;4.88;1.95;;;16.90;99.90;;;;;;6218400;23;20020;-86
2023/07/01 06:16:48;;;;;;;3.85;2.17;;;16.80;99.90;;;;;;6218243;23;20562;-86
2023/07/01 06:19:14;;;;;;;2.65;1.83;;;16.80;99.90;;;;;;6219080;23;20031;-85
2023/07/01 06:21:40;;;;;;;4.30;2.20;;;16.80;99.90;;;;;;6218709;23;20024;-85
2023/07/01 06:24:06;;;;;;;3.88;1.85;;;16.90;99.90;;;;;;6218238;23;20035;-84
2023/07/01 06:26:31;;;;;;;3.85;1.73;;;16.80;99.90;;;;;;6218405;23;20024;-85
2023/07/01 06:28:57;;;;;;;4.78;2.05;;;16.80;99.90;;;;;;6218945;23;20015;-85
2023/07/01 06:31:23;;;;;;;6.57;2.28;;;16.80;99.90;;;;;;6218462;23;20346;-85
2023/07/01 06:33:49;;;;;;;7.75;2.22;;;16.80;99.90;;;;;;6218554;23;20082;-85
2023/07/01 06:36:32;;;;;;;5.93;2.88;;;16.80;99.90;;;;;;6245723;23;20020;-90
2023/07/01 06:39:00;;;;;;;3.90;2.65;;;16.90;99.90;;;;;;6218877;23;20020;-88
2023/07/01 06:41:26;;;;;;;4.75;2.25;;;16.70;99.90;;;;;;6194368;23;20016;-87
2023/07/01 06:43:52;;;;;;;5.38;2.22;;;16.70;99.90;;;;;;6218405;23;20406;-87
2023/07/01 06:46:19;;;;;;;3.97;2.53;;;16.70;99.90;;;;;;6219529;23;20020;-86
2023/07/01 06:48:45;;;;;;;6.30;2.47;;;16.70;99.90;;;;;;6247675;23;20443;-85
2023/07/01 06:51:13;;;;;;;5.47;2.75;;;16.70;99.90;;;;;;6246688;23;20034;-87
2023/07/01 06:53:39;;;;;;;3.25;1.73;;;16.70;99.90;;;;;;6193787;23;20078;-85
2023/07/01 06:56:06;;;;;;;3.95;2.55;;;16.70;99.90;;;;;;6245381;23;20394;-86
2023/07/01 06:58:32;;;;;;;4.78;1.88;;;16.70;99.90;;;;;;6245373;23;20023;-86
2023/07/01 07:00:57;;;;;;;3.95;2.33;;;16.80;99.90;;;;;;6218896;23;20064;-85
2023/07/01 07:03:23;;;;;;;4.57;2.25;;;16.80;99.90;;;;;;6218261;23;20020;-86
2023/07/01 07:05:52;;;;;;;4.85;2.58;;;16.80;99.90;;;;;;6245299;23;20058;-86
2023/07/01 07:08:17;;;;;;;5.07;1.98;;;16.80;99.90;;;;;;6218939;23;20384;-87
2023/07/01 07:10:43;;;;;;;6.82;2.60;;;16.80;99.90;;;;;;6218322;23;20020;-85
2023/07/01 07:13:10;;;;;;;4.05;1.95;;;16.80;99.90;;;;;;6218401;23;20032;-86
2023/07/01 07:15:35;;;;;;;3.97;2.28;;;16.80;99.90;;;;;;6218506;23;20047;-87
2023/07/01 07:18:01;;;;;;;3.92;2.58;;;16.80;99.90;;;;;;6244800;23;20035;-86
2023/07/01 07:20:27;;;;;;;3.35;2.00;;;16.70;99.90;;;;;;6218295;23;20020;-86
2023/07/01 07:22:53;;;;;;;3.13;1.75;;;16.70;99.90;;;;;;6218919;23;20105;-86
2023/07/01 07:25:22;;;;;;;2.38;1.70;;;16.70;99.90;;;;;;6219688;23;20075;-86
2023/07/01 07:27:48;;;;;;;3.30;2.78;;;16.70;99.90;;;;;;6219678;23;20459;-87
2023/07/01 07:30:14;;;;;;;3.65;2.00;;;16.80;99.90;;;;;;6247371;23;20091;-86
2023/07/01 07:32:40;;;;;;;2.22;1.50;;;16.80;99.90;;;;;;6220159;23;20485;-86
2023/07/01 07:35:06;;;;;;;2.22;1.77;;;16.70;99.90;;;;;;6220222;23;20020;-84
2023/07/01 07:37:32;;;;;;;1.63;1.40;;;16.80;99.90;;;;;;6247367;23;20016;-85
2023/07/01 07:39:59;;;;;;;2.50;1.42;;;16.90;99.90;;;;;;6247426;23;20027;-85
2023/07/01 07:42:25;;;;;;;2.95;1.85;;;16.90;99.90;;;;;;6220959;23;20021;-82
2023/07/01 07:44:51;;;;;;;1.40;1.20;;;16.90;99.90;;;;;;6246980;23;20400;-83
2023/07/01 07:47:16;;;;;;;2.83;1.52;;;16.70;99.90;;;;;;6247190;23;20017;-85
2023/07/01 07:49:42;;;;;;;1.65;1.30;;;17.00;99.90;;;;;;6247132;23;20091;-84
2023/07/01 07:52:08;;;;;;;2.10;1.80;;;17.00;99.90;;;;;;6247160;23;20565;-84
2023/07/01 07:54:34;;;;;;;3.30;1.77;;;17.00;99.90;;;;;;6220496;23;20019;-83
2023/07/01 07:56:59;;;;;;;2.03;1.25;;;17.10;99.90;;;;;;6246692;23;20027;-86
2023/07/01 07:59:28;;;;;;;1.70;1.33;;;17.20;99.90;;;;;;6246575;23;20019;-85
2023/07/01 08:01:54;;;;;;;1.90;1.38;;;17.30;99.90;;;;;;6220363;23;20024;-85
2023/07/01 08:04:20;;;;;;;3.78;1.70;;;17.40;99.90;;;;;;6246627;23;20420;-85
2023/07/01 08:06:46;;;;;;;2.80;1.40;;;17.40;99.90;;;;;;6219832;23;20031;-86
2023/07/01 08:09:12;;;;;;;1.73;1.20;;;17.30;99.90;;;;;;6247055;23;20020;-85
2023/07/01 08:11:37;;;;;;;2.28;1.60;;;17.40;99.90;;;;;;6219566;23;20052;-84
2023/07/01 08:14:03;;;;;;;1.95;1.30;;;17.40;99.90;;;;;;6246807;23;20020;-85
2023/07/01 08:16:31;;;;;;;1.40;1.30;;;17.40;99.90;;;;;;6247873;23;20051;-86
2023/07/01 08:18:57;;;;;;;2.08;1.05;;;17.40;99.90;;;;;;6221689;23;20768;-86
2023/07/01 08:21:23;;;;;;;2.22;1.30;;;17.40;99.90;;;;;;6247716;23;20028;-82
2023/07/01 08:23:49;;;;;;;2.17;1.10;;;17.40;99.90;;;;;;6220017;23;20516;-86
2023/07/01 08:26:14;;;;;;;1.70;1.10;;;17.40;99.90;;;;;;6219962;23;20027;-83
2023/07/01 08:28:40;;;;;;;1.23;1.00;;;17.40;99.90;;;;;;6247539;23;20087;-83
2023/07/01 08:31:06;;;;;;;1.30;1.20;;;17.50;99.90;;;;;;6246990;23;20047;-83
2023/07/01 08:33:32;;;;;;;1.48;1.30;;;17.50;99.90;;;;;;6246056;23;20031;-82
2023/07/01 08:35:58;;;;;;;0.98;0.73;;;17.50;99.90;;;;;;6246977;23;20074;-85
2023/07/01 08:38:25;;;;;;;1.40;0.80;;;17.60;99.90;;;;;;6247252;23;20016;-83
2023/07/01 08:40:55;;;;;;;1.23;1.13;;;17.60;99.90;;;;;;6247205;23;20024;-83
2023/07/01 08:43:25;;;;;;;1.40;1.30;;;17.60;99.90;;;;;;6246959;23;20447;-84
2023/07/01 08:45:52;;;;;;;1.10;1.00;;;17.70;99.90;;;;;;6245868;23;20447;-84
2023/07/01 08:48:22;;;;;;;1.05;0.95;;;17.80;99.90;;;;;;6246252;23;20023;-87
2023/07/01 08:50:57;;;;;;;1.40;1.20;;;17.90;99.90;;;;;;6194275;23;20012;-83
2023/07/01 08:53:23;;;;;;;1.33;1.00;;;17.90;99.90;;;;;;6246434;23;20442;-86
2023/07/01 08:55:49;;;;;;;1.45;0.80;;;18.00;99.90;;;;;;6219124;23;20150;-83
2023/07/01 08:58:15;;;;;;;1.30;1.20;;;18.10;99.90;;;;;;6246166;23;20024;-84
2023/07/01 09:00:42;;;;;;;1.10;1.00;;;18.10;99.90;;;;;;6194554;23;20536;-84
2023/07/01 09:03:09;;;;;;;1.27;1.00;;;18.10;99.90;;;;;;6218627;23;20031;-84
2023/07/01 09:05:34;;;;;;;1.38;0.88;;;18.20;99.90;;;;;;6218849;23;20024;-84
2023/07/01 09:08:00;;;;;;;1.00;0.90;;;18.10;99.90;;;;;;6245882;23;20470;-89
2023/07/01 09:10:26;;;;;;;2.30;1.08;;;18.20;99.90;;;;;;6194083;23;20087;-86
2023/07/01 09:12:52;;;;;;;1.15;1.00;;;18.30;99.90;;;;;;6245940;23;20066;-84
2023/07/01 09:15:17;;;;;;;1.67;1.10;;;18.30;99.90;;;;;;6245339;23;20399;-85
2023/07/01 09:17:43;;;;;;;1.42;0.80;;;18.30;99.90;;;;;;6218659;23;20035;-85
2023/07/01 09:20:11;;;;;;;1.15;0.90;;;18.30;99.90;;;;;;6244950;23;20091;-82
2023/07/01 09:22:39;;;;;;;1.08;0.77;;;18.30;99.90;;;;;;6218939;23;20020;-84
2023/07/01 09:25:06;;;;;;;1.52;0.98;;;18.40;99.90;;;;;;6246180;23;20013;-85
2023/07/01 09:27:49;;;;;;;1.10;0.93;;;18.40;99.90;;;;;;6218578;23;20078;-83
2023/07/01 09:30:24;;;;;;;0.57;0.50;;;18.40;99.90;;;;;;6219026;23;20024;-83
2023/07/01 09:32:50;;;;;;;0.90;0.80;;;18.50;99.90;;;;;;6245697;23;20060;-83
2023/07/01 09:35:16;;;;;;;0.50;0.50;;;18.40;99.90;;;;;;6218667;23;20020;-84
2023/07/01 09:37:42;;;;;;;0.75;0.60;;;18.40;99.90;;;;;;6218868;23;20024;-86
2023/07/01 09:40:28;;;;;;;0.60;0.57;;;18.40;99.90;;;;;;6245888;23;20039;-83
2023/07/01 09:42:54;;;;;;;;;;;18.30;99.90;;;;;;6246187;23;20070;-85
2023/07/01 09:45:20;;;;;;;0.50;0.50;;;18.30;99.90;;;;;;6245235;23;20345;-84
2023/07/01 09:47:53;;;;;;;0.85;0.38;;;18.30;99.90;;;;;;6245066;23;20020;-82
2023/07/01 09:50:22;;;;;;;0.52;0.40;;;18.30;99.90;;;;;;6245713;23;20016;-84
2023/07/01 09:52:50;;;;;;;0.60;0.50;;;18.40;99.90;;;;;;6245328;23;20020;-85
2023/07/01 09:55:16;;;;;;;0.40;0.40;;;18.40;99.90;;;;;;6245496;23;20150;-85
2023/07/01 09:57:42;;;;;;;0.28;0.28;;;18.50;99.90;;;;;;6245209;23;20103;-84
2023/07/01 10:00:16;;;;;;;0.40;0.40;;;18.50;99.90;;;;;;6245507;23;20056;-83
2023/07/01 10:02:51;;;;;;;0.45;0.30;;;18.50;99.90;;;;;;6245686;23;20103;-83
2023/07/01 10:05:18;;;;;;;0.45;0.30;;;18.50;99.90;;;;;;6245550;23;20023;-85
2023/07/01 10:07:45;;;;;;;0.20;0.20;;;18.60;99.90;;;;;;6219084;23;20024;-83
2023/07/01 10:10:16;;;;;;;0.30;0.10;;;18.60;99.90;;;;;;6245783;23;20016;-83
2023/07/01 10:12:44;;;;;;;0.15;0.15;;;18.60;99.90;;;;;;6245772;23;20381;-84
2023/07/01 10:15:11;;;;;;;0.20;0.20;;;18.70;99.90;;;;;;6245052;23;20115;-83
2023/07/01 10:17:48;;;;;;;0.30;0.20;;;18.80;99.90;;;;;;6246138;23;20105;-85
2023/07/01 10:20:30;;;;;;;0.30;0.20;;;18.90;99.90;;;;;;6245496;23;20020;-84
2023/07/01 10:23:00;;;;;;;0.35;0.30;;;19.10;99.90;;;;;;6218469;23;20390;-84
2023/07/01 10:25:44;;;;;;;1.13;0.40;;;19.30;99.90;;;;;;6245491;23;20055;-83
2023/07/01 10:28:11;;;;;;;0.63;0.52;;;19.40;99.90;;;;;;6245556;23;20446;-85
2023/07/01 10:30:45;;;;;;;1.05;0.90;;;19.50;99.90;;;;;;6246113;23;20020;-85
2023/07/01 10:33:35;;;;;;;0.80;0.65;;;19.50;99.90;;;;;;6245238;23;20459;-82
2023/07/01 10:36:01;;;;;;;1.00;0.60;;;19.70;99.90;;;;;;6218358;23;20094;-83
2023/07/01 10:38:26;;;;;;;1.40;1.10;;;19.80;99.90;;;;;;6245828;23;20023;-81
2023/07/01 10:40:52;;;;;;;1.70;1.23;;;19.80;99.90;;;;;;6218558;23;20031;-83
2023/07/01 10:43:29;;;;;;;5.25;1.40;;;19.70;99.90;;;;;;6245189;23;20447;-82
2023/07/01 10:46:25;;;;;;;1.38;1.10;;;19.60;99.90;;;;;;6218198;23;20051;-83
2023/07/01 10:49:03;;;;;;;1.45;1.17;;;19.60;99.90;;;;;;6242466;22;20203;-82
2023/07/01 10:51:44;;;;;;;2.75;1.63;;;19.60;99.90;;;;;;6244939;23;20023;-84
2023/07/01 10:54:10;;;;;;;1.48;1.02;;;19.50;99.90;;;;;;6218245;23;20028;-83
2023/07/01 10:56:39;;;;;;;1.42;1.10;;;19.50;99.90;;;;;;6245315;23;20023;-84
2023/07/01 10:59:17;;;;;;;1.50;1.25;;;19.50;99.90;;;;;;6246116;23;20016;-83
2023/07/01 11:01:47;;;;;;;2.78;1.30;;;19.50;99.90;;;;;;6247368;23;20028;-84
2023/07/01 11:04:14;;;;;;;2.75;1.50;;;19.50;99.90;;;;;;6247541;23;20091;-84
2023/07/01 11:07:00;;;;;;;2.60;1.55;;;19.50;99.90;;;;;;6246969;23;20027;-85
2023/07/01 11:09:32;;;;;;;2.35;1.00;;;19.50;99.90;;;;;;6220739;23;20016;-85
2023/07/01 11:12:01;;;;;;;1.63;1.10;;;19.50;99.90;;;;;;6220263;23;20024;-84
2023/07/01 11:14:34;;;;;;;1.73;1.20;;;19.60;99.90;;;;;;6247059;23;20023;-84
2023/07/01 11:17:06;;;;;;;2.28;1.58;;;19.60;99.90;;;;;;6247528;23;20023;-86
2023/07/01 11:19:32;;;;;;;1.88;1.20;;;20.00;99.90;;;;;;6247470;23;20024;-83
2023/07/01 11:21:58;;;;;;;3.08;1.70;;;19.80;99.90;;;;;;6247205;23;20022;-83
2023/07/01 11:24:24;;;;;;;2.38;1.58;;;19.80;99.90;;;;;;6246923;23;20028;-85
2023/07/01 11:26:50;;;;;;;2.92;1.58;;;19.90;99.90;;;;;;6220078;23;20028;-84
2023/07/01 11:29:17;;;;;;;2.60;1.45;;;20.00;99.90;;;;;;6219801;23;20095;-84
2023/07/01 11:31:44;;;;;;;1.65;1.10;;;19.90;99.90;;;;;;6246835;23;20082;-83
2023/07/01 11:34:17;;;;;;;2.30;1.40;;;19.90;99.90;;;;;;6219804;23;20020;-83
2023/07/01 11:36:44;;;;;;;1.33;1.00;;;19.90;99.90;;;;;;6220111;23;20043;-84
2023/07/01 11:39:12;;;;;;;1.55;1.17;;;19.80;99.90;;;;;;6247329;23;20016;-84
2023/07/01 11:41:38;;;;;;;1.20;0.98;;;19.80;99.90;;;;;;6247132;23;20012;-84
2023/07/01 11:44:11;;;;;;;2.65;1.55;;;19.90;99.90;;;;;;6219339;23;20028;-84
2023/07/01 11:46:39;;;;;;;2.38;1.35;;;19.90;99.90;;;;;;6219660;23;20042;-83
2023/07/01 11:49:23;;;;;;;2.38;1.23;;;20.00;99.90;;;;;;6246740;23;20052;-85
2023/07/01 11:51:51;;;;;;;3.00;1.98;;;20.20;99.90;;;;;;6246747;23;20457;-84
2023/07/01 11:54:19;;;;;;;6.35;2.47;;;20.30;99.90;;;;;;6246821;23;20342;-84
2023/07/01 11:56:45;;;;;;;2.38;1.42;;;20.40;99.90;;;;;;6246978;23;20062;-84
2023/07/01 11:59:30;;;;;;;3.55;2.17;;;20.40;99.90;;;;;;6219839;23;20028;-84
2023/07/01 12:01:56;;;;;;;2.70;1.77;;;20.40;99.90;;;;;;6219949;23;20024;-83
2023/07/01 12:04:23;;;;;;;2.92;1.35;;;20.30;99.90;;;;;;6219299;23;20086;-83
2023/07/01 12:06:49;;;;;;;4.88;1.40;;;20.40;99.90;;;;;;6246223;23;20095;-83
2023/07/01 12:09:28;;;;;;;35.22;32.40;;;20.40;99.90;;;;;;6246809;23;20024;-84
2023/07/01 12:11:54;;;;;;;14.43;13.32;;;20.30;99.90;;;;;;6219758;23;20447;-83
2023/07/01 12:14:22;;;;;;;2.40;1.60;;;20.30;99.90;;;;;;6246095;23;20123;-84
2023/07/01 12:16:49;;;;;;;2.78;1.30;;;20.40;99.90;;;;;;6219984;23;20469;-84
2023/07/01 12:19:16;;;;;;;2.63;1.70;;;20.40;99.90;;;;;;6220043;23;20020;-85
2023/07/01 12:21:43;;;;;;;2.67;1.70;;;20.40;99.90;;;;;;6247613;23;20020;-85
2023/07/01 12:24:25;;;;;;;3.17;1.77;;;20.50;99.90;;;;;;6248902;23;20016;-87
2023/07/01 12:26:56;;;;;;;3.25;2.95;;;20.60;99.90;;;;;;6248768;23;20028;-84
2023/07/01 12:29:22;;;;;;;5.00;1.48;;;20.70;99.90;;;;;;6224811;23;20024;-84
2023/07/01 12:31:49;;;;;;;2.42;1.60;;;20.70;99.90;;;;;;6225237;23;20020;-88
2023/07/01 12:34:15;;;;;;;2.17;1.20;;;20.80;99.90;;;;;;6223919;23;20021;-85
2023/07/01 12:36:43;;;;;;;2.90;1.52;;;21.10;99.90;;;;;;6221697;23;20093;-84
2023/07/01 12:39:09;;;;;;;3.65;1.27;;;21.10;99.90;;;;;;6249528;23;20066;-85
2023/07/01 12:41:35;;;;;;;3.95;1.10;;;21.10;99.90;;;;;;6221039;23;20095;-85
2023/07/01 12:44:06;;;;;;;3.28;1.13;;;21.10;99.90;;;;;;6221446;23;20047;-86
2023/07/01 12:46:32;;;;;;;2.75;0.90;;;21.20;99.90;;;;;;6248964;23;20103;-86
2023/07/01 12:49:00;;;;;;;1.10;0.85;;;21.30;99.90;;;;;;6248792;23;20031;-90
2023/07/01 12:51:26;;;;;;;1.67;1.05;;;21.40;99.90;;;;;;6220727;23;20020;-85